createdAt,value
2022-09-12T00:01:46.719Z,3.85
2022-09-12T00:06:48.311Z,4.13
2022-09-12T00:11:50.462Z,4.43
2022-09-12T00:16:51.982Z,6.53
2022-09-12T00:21:53.656Z,10.77
2022-09-12T00:26:55.156Z,10.85
2022-09-12T00:31:56.686Z,14.40
2022-09-12T00:36:58.176Z,15.75
2022-09-12T00:41:59.661Z,17.58
2022-09-12T00:47:06.056Z,15.82
2022-09-12T00:52:13.509Z,15.93
2022-09-12T00:57:16.776Z,17.73
2022-09-12T01:02:18.611Z,17.65
2022-09-12T01:07:21.747Z,17.98
2022-09-12T01:12:23.220Z,18.52
2022-09-12T01:17:31.909Z,18.58
2022-09-12T01:23:14.910Z,20.02
2022-09-12T01:28:54.637Z,20.02
2022-09-12T01:34:02.925Z,20.10
2022-09-12T01:39:10.476Z,20.77
2022-09-12T01:44:18.339Z,19.30
2022-09-12T01:49:29.408Z,19.88
2022-09-12T01:54:39.890Z,20.75
2022-09-12T01:59:47.386Z,20.10
2022-09-12T02:04:56.132Z,19.45
2022-09-12T02:10:02.362Z,19.70
2022-09-12T02:15:09.200Z,20.80
2022-09-12T02:20:46.520Z,20.15
2022-09-12T02:25:46.821Z,19.50
2022-09-12T02:31:20.509Z,21.65
2022-09-12T02:36:34.943Z,20.63
2022-09-12T02:41:36.555Z,20.70
2022-09-12T02:46:43.943Z,20.45
2022-09-12T02:51:46.814Z,20.60
2022-09-12T02:56:48.435Z,22.38
2022-09-12T03:02:04.586Z,21.70
2022-09-12T03:07:06.205Z,22.40
2022-09-12T03:12:29.795Z,23.95
2022-09-12T03:18:06.677Z,23.58
2022-09-12T03:23:45.094Z,23.60
2022-09-12T03:28:47.805Z,23.17
2022-09-12T03:33:49.275Z,24.75
2022-09-12T03:38:51.222Z,24.17
2022-09-12T03:43:52.774Z,24.23
2022-09-12T03:48:54.214Z,23.38
2022-09-12T03:53:55.761Z,22.77
2022-09-12T03:58:57.504Z,24.40
2022-09-12T04:03:58.992Z,25.05
2022-09-12T04:09:00.745Z,24.20
2022-09-12T04:14:02.204Z,22.13
2022-09-12T04:19:03.953Z,23.67
2022-09-12T04:24:05.671Z,22.60
2022-09-12T04:29:07.165Z,22.80
2022-09-12T04:34:08.842Z,23.20
2022-09-12T04:39:10.568Z,22.83
2022-09-12T04:44:14.344Z,23.00
2022-09-12T04:49:17.367Z,22.80
2022-09-12T04:54:20.031Z,23.55
2022-09-12T04:59:22.289Z,22.60
2022-09-12T05:04:23.740Z,23.13
2022-09-12T05:09:25.249Z,22.52
2022-09-12T05:14:26.734Z,21.95
2022-09-12T05:19:30.048Z,23.38
2022-09-12T05:24:32.058Z,22.70
2022-09-12T05:29:34.053Z,22.83
2022-09-12T05:34:35.505Z,22.63
2022-09-12T05:39:37.083Z,22.80
2022-09-12T05:44:38.653Z,22.05
2022-09-12T05:49:40.140Z,20.38
2022-09-12T05:54:41.603Z,21.50
2022-09-12T05:59:43.419Z,22.23
2022-09-12T06:04:45.790Z,22.38
2022-09-12T06:09:47.245Z,22.00
2022-09-12T06:14:49.343Z,22.42
2022-09-12T06:19:51.060Z,22.08
2022-09-12T06:24:56.037Z,22.15
2022-09-12T06:29:59.583Z,21.55
2022-09-12T06:35:01.457Z,20.88
2022-09-12T06:40:03.330Z,19.67
2022-09-12T06:45:05.056Z,20.65
2022-09-12T06:50:07.164Z,21.58
2022-09-12T06:55:08.752Z,20.98
2022-09-12T07:00:10.709Z,20.40
2022-09-12T07:05:12.980Z,20.05
2022-09-12T07:10:16.985Z,19.27
2022-09-12T07:15:20.500Z,19.20
2022-09-12T07:20:23.095Z,19.52
2022-09-12T07:25:24.588Z,20.77
2022-09-12T07:30:26.208Z,20.70
2022-09-12T07:35:27.730Z,21.08
2022-09-12T07:40:29.456Z,21.48
2022-09-12T07:45:31.120Z,21.95
2022-09-12T07:50:33.507Z,22.02
2022-09-12T07:55:34.954Z,22.30
2022-09-12T08:00:37.818Z,22.73
2022-09-12T08:05:39.373Z,21.65
2022-09-12T08:10:40.885Z,21.85
2022-09-12T08:15:42.504Z,21.95
2022-09-12T08:20:43.962Z,22.50
2022-09-12T08:25:45.612Z,23.67
2022-09-12T08:30:47.168Z,24.40
2022-09-12T08:35:48.754Z,25.77
2022-09-12T08:41:02.247Z,24.65
2022-09-12T08:46:30.130Z,25.42
2022-09-12T08:51:35.586Z,24.52
2022-09-12T08:56:39.142Z,24.35
2022-09-12T09:01:44.631Z,23.33
2022-09-12T09:06:59.247Z,23.10
2022-09-12T09:12:06.741Z,21.58
2022-09-12T09:17:13.154Z,19.40
2022-09-12T09:22:25.132Z,17.65
2022-09-12T09:27:42.565Z,17.15
2022-09-12T09:32:47.772Z,16.80
2022-09-12T09:38:08.665Z,15.55
2022-09-12T09:43:22.875Z,15.43
2022-09-12T09:48:35.235Z,15.50
2022-09-12T09:53:50.392Z,14.63
2022-09-12T09:58:51.955Z,14.18
2022-09-12T10:03:55.674Z,13.18
2022-09-12T10:09:15.731Z,13.90
2022-09-12T10:14:43.184Z,15.15
2022-09-12T10:19:49.849Z,14.65
2022-09-12T10:25:01.755Z,15.18
2022-09-12T10:30:07.439Z,15.40
2022-09-12T10:35:17.651Z,15.10
2022-09-12T10:40:27.738Z,16.67
2022-09-12T10:45:37.580Z,15.43
2022-09-12T10:50:41.535Z,15.63
2022-09-12T10:56:01.594Z,15.32
2022-09-12T11:01:36.351Z,14.93
2022-09-12T11:06:47.098Z,17.00
2022-09-12T11:12:14.626Z,13.45
2022-09-12T11:18:04.645Z,14.73
2022-09-12T11:23:17.203Z,14.90
2022-09-12T11:28:30.734Z,13.38
2022-09-12T11:33:43.186Z,12.30
2022-09-12T11:38:52.235Z,12.85
2022-09-12T11:44:24.545Z,13.23
2022-09-12T11:49:38.240Z,13.00
2022-09-12T11:54:44.867Z,10.85
2022-09-12T12:05:24.258Z,8.25
2022-09-12T12:10:35.640Z,7.50
2022-09-12T12:15:39.227Z,8.00
2022-09-12T12:20:40.901Z,7.75
2022-09-12T12:25:52.940Z,8.13
2022-09-12T12:30:54.869Z,9.23
2022-09-12T12:36:02.252Z,8.82
2022-09-12T12:41:18.498Z,9.38
2022-09-12T12:46:26.493Z,10.43
2022-09-12T12:51:35.674Z,8.93
2022-09-12T12:56:42.504Z,10.48
2022-09-12T13:01:54.706Z,9.57
2022-09-12T13:07:08.728Z,9.80
2022-09-12T13:12:21.777Z,9.63
2022-09-12T13:17:26.138Z,9.77
2022-09-12T13:22:42.201Z,10.00
2022-09-12T13:28:26.415Z,8.87
2022-09-12T13:33:28.433Z,7.28
2022-09-12T13:38:54.370Z,6.25
2022-09-12T13:43:55.932Z,6.18
2022-09-12T13:49:00.295Z,6.03
2022-09-12T13:54:05.305Z,5.03
2022-09-12T13:59:12.461Z,3.80
2022-09-12T14:04:38.601Z,3.92
2022-09-12T14:09:43.848Z,4.15
2022-09-12T14:14:48.869Z,4.45
2022-09-12T14:19:52.683Z,4.57
2022-09-12T14:24:54.613Z,4.95
2022-09-12T14:30:20.067Z,4.47
2022-09-12T14:35:21.846Z,4.65
2022-09-12T14:40:24.173Z,5.32
2022-09-12T14:45:30.208Z,5.32
2022-09-12T14:50:35.430Z,5.35
2022-09-12T14:55:45.297Z,5.22
2022-09-12T15:01:08.289Z,4.90
2022-09-12T15:06:39.903Z,4.15
2022-09-12T15:11:41.354Z,3.80
2022-09-12T15:16:42.876Z,3.25
2022-09-12T15:21:44.346Z,3.28
2022-09-12T15:26:45.799Z,3.47
2022-09-12T15:31:50.847Z,3.72
2022-09-12T15:36:52.739Z,3.88
2022-09-12T15:41:54.224Z,3.78
2022-09-12T15:46:55.697Z,4.20
2022-09-12T15:51:57.367Z,4.53
2022-09-12T15:56:59.399Z,4.20
2022-09-12T16:02:01.162Z,3.72
2022-09-12T16:07:02.639Z,3.63
2022-09-12T16:12:04.191Z,3.33
2022-09-12T16:17:05.630Z,3.25
2022-09-12T16:22:07.126Z,3.20
2022-09-12T16:27:08.601Z,3.00
2022-09-12T16:32:10.163Z,3.42
2022-09-12T16:37:11.618Z,2.63
2022-09-12T16:42:13.095Z,3.72
2022-09-12T16:47:15.219Z,3.40
2022-09-12T16:52:17.051Z,3.40
2022-09-12T16:57:18.527Z,3.45
2022-09-12T17:02:20.432Z,2.90
2022-09-12T17:07:22.201Z,3.00
2022-09-12T17:12:24.035Z,3.63
2022-09-12T17:17:25.617Z,2.42
2022-09-12T17:22:27.751Z,2.60
2022-09-12T17:27:29.235Z,2.80
2022-09-12T17:32:30.723Z,3.97
2022-09-12T17:37:32.258Z,3.42
2022-09-12T17:42:34.437Z,3.95
2022-09-12T17:47:35.967Z,3.33
2022-09-12T17:52:37.499Z,3.88
2022-09-12T17:57:40.161Z,2.63
2022-09-12T18:02:42.846Z,2.72
2022-09-12T18:07:44.375Z,2.80
2022-09-12T18:12:47.042Z,2.90
2022-09-12T18:17:48.511Z,7.15
2022-09-12T18:22:50.048Z,3.83
2022-09-12T18:27:51.922Z,3.50
2022-09-12T18:32:53.377Z,3.20
2022-09-12T18:37:55.751Z,4.85
2022-09-12T18:42:57.204Z,4.70
2022-09-12T18:47:58.749Z,4.28
2022-09-12T18:53:00.259Z,3.92
2022-09-12T18:58:01.725Z,4.20
2022-09-12T19:03:03.212Z,4.38
2022-09-12T19:08:04.854Z,5.25
2022-09-12T19:13:06.498Z,5.05
2022-09-12T19:18:08.724Z,7.05
2022-09-12T19:23:10.242Z,7.15
2022-09-12T19:28:12.288Z,8.20
2022-09-12T19:33:13.844Z,5.72
2022-09-12T19:38:15.708Z,7.72
2022-09-12T19:43:17.227Z,6.35
2022-09-12T19:48:19.692Z,5.88
2022-09-12T19:53:21.212Z,5.82
2022-09-12T19:58:22.683Z,7.25
2022-09-12T20:03:24.194Z,8.07
2022-09-12T20:08:25.661Z,8.15
2022-09-12T20:13:27.688Z,8.32
2022-09-12T20:18:29.216Z,9.05
2022-09-12T20:23:30.862Z,9.20
2022-09-12T20:28:32.513Z,8.95
2022-09-12T20:33:34.490Z,8.30
2022-09-12T20:38:36.459Z,8.40
2022-09-12T20:43:40.939Z,7.90
2022-09-12T20:48:43.144Z,8.32
2022-09-12T20:53:44.636Z,9.15
2022-09-12T20:58:46.229Z,9.32
2022-09-12T21:03:47.953Z,9.27
2022-09-12T21:08:50.184Z,9.13
2022-09-12T21:13:52.745Z,10.80
2022-09-12T21:18:56.988Z,9.98
2022-09-12T21:23:59.761Z,9.95
2022-09-12T21:29:01.418Z,10.80
2022-09-12T21:34:02.958Z,11.02
2022-09-12T21:39:05.126Z,11.90
2022-09-12T21:44:07.383Z,12.35
2022-09-12T21:49:08.865Z,11.85
2022-09-12T21:54:10.366Z,12.93
2022-09-12T21:59:11.848Z,13.07
2022-09-12T22:04:13.398Z,14.23
2022-09-12T22:09:16.887Z,14.00
2022-09-12T22:14:18.570Z,14.32
2022-09-12T22:19:20.183Z,14.18
2022-09-12T22:24:27.566Z,13.88
2022-09-12T22:29:29.085Z,13.73
2022-09-12T22:34:30.819Z,15.60
2022-09-12T22:39:32.462Z,15.82
2022-09-12T22:44:34.118Z,18.40
2022-09-12T22:49:35.618Z,15.52
2022-09-12T22:54:37.670Z,14.57
2022-09-12T22:59:39.446Z,12.57
2022-09-12T23:04:40.891Z,9.95
2022-09-12T23:09:42.427Z,10.18
2022-09-12T23:14:43.965Z,10.10
2022-09-12T23:19:45.643Z,9.88
2022-09-12T23:24:47.221Z,10.43
2022-09-12T23:29:52.289Z,11.60
2022-09-12T23:34:53.840Z,12.05
2022-09-12T23:39:55.396Z,12.40
2022-09-12T23:44:57.207Z,12.45
2022-09-12T23:49:58.713Z,14.50
2022-09-12T23:55:00.158Z,14.85
